Time,TemperatureF,DewpointF,PressureIn,WindDirection,WindDirectionDegrees,WindSpeedMPH,WindSpeedGustMPH,Humidity,HourlyPrecipIn,Conditions,Clouds,dailyrainin,SoftwareType,DateUTC
2013-02-11 00:01:00,38.0,32.0,30.04,SE,140,0.0,1.0,78,0.00,,,0.00,,2013-02-11 08:01:00,
2013-02-11 00:11:00,38.0,32.0,30.05,SE,140,0.0,1.0,79,0.00,,,0.00,,2013-02-11 08:11:00,
2013-02-11 00:21:00,38.0,32.0,30.05,SE,140,0.0,1.0,79,0.00,,,0.00,,2013-02-11 08:21:00,
2013-02-11 00:31:00,38.0,32.0,30.05,SE,140,0.0,1.0,79,0.00,,,0.00,,2013-02-11 08:31:00,
2013-02-11 00:42:00,37.0,31.0,30.05,SE,140,0.0,1.0,80,0.00,,,0.00,,2013-02-11 08:42:00,
2013-02-11 00:52:00,37.0,31.0,30.05,SE,140,0.0,1.0,80,0.00,,,0.00,,2013-02-11 08:52:00,
2013-02-11 01:01:00,37.0,31.0,30.06,SE,140,0.0,0.0,80,0.00,,,0.00,,2013-02-11 09:01:00,
2013-02-11 01:12:00,37.0,31.0,30.06,SE,140,0.0,0.0,80,0.00,,,0.00,,2013-02-11 09:12:00,
2013-02-11 01:21:00,37.0,32.0,30.06,SE,140,0.0,2.0,81,0.00,,,0.00,,2013-02-11 09:21:00,
2013-02-11 01:31:00,36.0,31.0,30.06,SE,140,0.0,1.0,82,0.00,,,0.00,,2013-02-11 09:31:00,
2013-02-11 01:41:00,36.0,31.0,30.06,SE,140,0.0,1.0,82,0.00,,,0.00,,2013-02-11 09:41:00,
2013-02-11 01:52:00,37.0,32.0,30.06,SE,140,0.0,2.0,83,0.00,,,0.00,,2013-02-11 09:52:00,
2013-02-11 02:01:00,36.0,31.0,30.06,SE,140,0.0,1.0,82,0.00,,,0.00,,2013-02-11 10:01:00,
2013-02-11 02:11:00,36.0,31.0,30.06,SE,140,0.0,1.0,82,0.00,,,0.00,,2013-02-11 10:11:00,
2013-02-11 02:21:00,36.0,31.0,30.07,SE,140,1.0,3.0,83,0.00,,,0.00,,2013-02-11 10:21:00,
2013-02-11 02:31:00,36.0,31.0,30.07,NNE,30,1.0,3.0,83,0.00,,,0.00,,2013-02-11 10:31:00,
2013-02-11 02:41:00,36.0,31.0,30.07,NNE,30,1.0,3.0,83,0.00,,,0.00,,2013-02-11 10:41:00,
2013-02-11 02:52:00,35.0,30.0,30.07,NNE,31,1.0,3.0,83,0.00,,,0.00,,2013-02-11 10:52:00,
2013-02-11 03:01:00,35.0,30.0,30.07,NNE,33,0.0,2.0,83,0.00,,,0.00,,2013-02-11 11:01:00,
2013-02-11 03:11:00,35.0,30.0,30.07,NNE,33,0.0,2.0,83,0.00,,,0.00,,2013-02-11 11:11:00,
2013-02-11 03:21:00,35.0,31.0,30.07,NNW,327,0.0,3.0,84,0.00,,,0.00,,2013-02-11 11:21:00,
2013-02-11 03:32:00,34.0,29.0,30.06,NNW,328,1.0,2.0,83,0.00,,,0.00,,2013-02-11 11:32:00,
2013-02-11 03:42:00,34.0,30.0,30.07,NNW,327,0.0,2.0,84,0.00,,,0.00,,2013-02-11 11:42:00,
2013-02-11 03:52:00,34.0,30.0,30.07,NNW,327,0.0,2.0,84,0.00,,,0.00,,2013-02-11 11:52:00,
2013-02-11 04:02:00,34.0,30.0,30.06,NE,34,0.0,3.0,84,0.00,,,0.00,,2013-02-11 12:02:00,
2013-02-11 04:12:00,34.0,30.0,30.06,NE,34,0.0,3.0,84,0.00,,,0.00,,2013-02-11 12:12:00,
2013-02-11 04:22:00,34.0,30.0,30.07,NE,35,0.0,1.0,84,0.00,,,0.00,,2013-02-11 12:22:00,
2013-02-11 04:31:00,33.0,29.0,30.07,NE,34,0.0,2.0,84,0.00,,,0.00,,2013-02-11 12:31:00,
2013-02-11 04:42:00,33.0,29.0,30.07,NE,34,1.0,2.0,84,0.00,,,0.00,,2013-02-11 12:42:00,
2013-02-11 04:52:00,33.0,29.0,30.07,NE,34,1.0,2.0,84,0.00,,,0.00,,2013-02-11 12:52:00,
2013-02-11 05:01:00,33.0,29.0,30.08,North,355,0.0,3.0,85,0.00,,,0.00,,2013-02-11 13:01:00,
2013-02-11 05:11:00,33.0,29.0,30.08,North,355,0.0,2.0,85,0.00,,,0.00,,2013-02-11 13:11:00,
2013-02-11 05:21:00,33.0,29.0,30.08,North,355,0.0,2.0,85,0.00,,,0.00,,2013-02-11 13:21:00,
2013-02-11 05:32:00,33.0,29.0,30.09,North,355,0.0,0.0,85,0.00,,,0.00,,2013-02-11 13:32:00,
2013-02-11 05:41:00,33.0,29.0,30.09,North,355,0.0,0.0,85,0.00,,,0.00,,2013-02-11 13:41:00,
2013-02-11 05:52:00,32.0,28.0,30.09,North,355,0.0,2.0,85,0.00,,,0.00,,2013-02-11 13:52:00,
2013-02-11 06:01:00,32.0,28.0,30.09,North,355,0.0,1.0,85,0.00,,,0.00,,2013-02-11 14:01:00,
2013-02-11 06:11:00,32.0,28.0,30.09,North,355,0.0,1.0,85,0.00,,,0.00,,2013-02-11 14:11:00,
2013-02-11 06:21:00,32.0,28.0,30.10,North,355,1.0,3.0,85,0.00,,,0.00,,2013-02-11 14:21:00,
2013-02-11 06:32:00,32.0,28.0,30.10,North,355,1.0,3.0,86,0.00,,,0.00,,2013-02-11 14:32:00,
2013-02-11 06:41:00,33.0,29.0,30.11,North,360,0.0,2.0,84,0.00,,,0.00,,2013-02-11 14:41:00,
2013-02-11 06:52:00,33.0,29.0,30.11,North,360,0.0,2.0,84,0.00,,,0.00,,2013-02-11 14:52:00,
2013-02-11 07:01:00,32.0,27.0,30.12,North,360,0.0,2.0,83,0.00,,,0.00,,2013-02-11 15:01:00,
2013-02-11 07:11:00,32.0,27.0,30.12,North,360,0.0,2.0,83,0.00,,,0.00,,2013-02-11 15:11:00,
2013-02-11 07:22:00,32.0,28.0,30.12,NNE,13,1.0,4.0,84,0.00,,,0.00,,2013-02-11 15:22:00,
2013-02-11 07:31:00,32.0,27.0,30.13,NNE,13,1.0,3.0,83,0.00,,,0.00,,2013-02-11 15:31:00,
2013-02-11 07:41:00,33.0,28.0,30.13,NNE,13,1.0,3.0,83,0.00,,,0.00,,2013-02-11 15:41:00,
2013-02-11 07:52:00,33.0,28.0,30.13,NNE,13,1.0,3.0,83,0.00,,,0.00,,2013-02-11 15:52:00,
2013-02-11 08:01:00,33.0,28.0,30.14,NNE,14,0.0,2.0,83,0.00,,,0.00,,2013-02-11 16:01:00,
2013-02-11 08:11:00,33.0,28.0,30.14,NNE,14,0.0,2.0,83,0.00,,,0.00,,2013-02-11 16:11:00,
2013-02-11 08:21:00,35.0,30.0,30.14,East,88,0.0,2.0,81,0.00,,,0.00,,2013-02-11 16:21:00,
2013-02-11 08:31:00,37.0,30.0,30.14,WSW,240,1.0,4.0,77,0.00,,,0.00,,2013-02-11 16:31:00,
2013-02-11 08:41:00,40.0,31.0,30.15,WSW,248,1.0,2.0,70,0.00,,,0.00,,2013-02-11 16:41:00,
2013-02-11 08:52:00,40.0,31.0,30.15,WSW,248,1.0,2.0,70,0.00,,,0.00,,2013-02-11 16:52:00,
2013-02-11 09:01:00,43.0,32.0,30.16,WSW,248,0.0,1.0,65,0.00,,,0.00,,2013-02-11 17:01:00,
2013-02-11 09:11:00,43.0,32.0,30.16,WSW,248,0.0,1.0,65,0.00,,,0.00,,2013-02-11 17:11:00,
2013-02-11 09:21:00,45.0,33.0,30.16,SE,125,1.0,2.0,63,0.00,,,0.00,,2013-02-11 17:21:00,
2013-02-11 09:31:00,49.0,33.0,30.16,SSE,148,1.0,3.0,53,0.00,,,0.00,,2013-02-11 17:31:00,
2013-02-11 09:41:00,49.0,33.0,30.16,SSE,148,1.0,3.0,53,0.00,,,0.00,,2013-02-11 17:41:00,
2013-02-11 09:52:00,50.0,31.0,30.16,ENE,74,2.0,4.0,47,0.00,,,0.00,,2013-02-11 17:52:00,
2013-02-11 10:01:00,51.0,30.0,30.17,ESE,107,1.0,3.0,45,0.00,,,0.00,,2013-02-11 18:01:00,
2013-02-11 10:11:00,51.0,30.0,30.17,ESE,107,1.0,3.0,45,0.00,,,0.00,,2013-02-11 18:11:00,
2013-02-11 10:21:00,52.0,30.0,30.17,ESE,108,0.0,5.0,43,0.00,,,0.00,,2013-02-11 18:21:00,
2013-02-11 10:31:00,53.0,29.0,30.17,SE,129,2.0,4.0,39,0.00,,,0.00,,2013-02-11 18:31:00,
2013-02-11 10:41:00,55.0,31.0,30.18,SE,141,1.0,4.0,39,0.00,,,0.00,,2013-02-11 18:41:00,
2013-02-11 10:53:00,55.0,31.0,30.18,SE,141,1.0,4.0,39,0.00,,,0.00,,2013-02-11 18:53:00,
2013-02-11 11:01:00,54.0,31.0,30.17,ENE,69,2.0,4.0,41,0.00,,,0.00,,2013-02-11 19:01:00,
2013-02-11 11:11:00,56.0,32.0,30.18,SW,219,2.0,4.0,40,0.00,,,0.00,,2013-02-11 19:11:00,
2013-02-11 11:21:00,56.0,32.0,30.18,SW,219,2.0,4.0,40,0.00,,,0.00,,2013-02-11 19:21:00,
2013-02-11 11:31:00,57.0,32.0,30.18,South,176,2.0,4.0,39,0.00,,,0.00,,2013-02-11 19:31:00,
2013-02-11 11:41:00,57.0,32.0,30.18,South,176,2.0,4.0,39,0.00,,,0.00,,2013-02-11 19:41:00,
2013-02-11 11:51:00,58.0,32.0,30.17,WSW,254,3.0,5.0,37,0.00,,,0.00,,2013-02-11 19:51:00,
2013-02-11 12:01:00,59.0,33.0,30.16,SW,233,1.0,5.0,37,0.00,,,0.00,,2013-02-11 20:01:00,
2013-02-11 12:11:00,57.0,30.0,30.16,NNE,32,3.0,5.0,36,0.00,,,0.00,,2013-02-11 20:11:00,
2013-02-11 12:21:00,57.0,30.0,30.16,NNE,32,3.0,5.0,36,0.00,,,0.00,,2013-02-11 20:21:00,
2013-02-11 12:31:00,59.0,32.0,30.15,NE,55,2.0,4.0,36,0.00,,,0.00,,2013-02-11 20:31:00,
2013-02-11 12:41:00,60.0,32.0,30.14,SSE,152,2.0,4.0,35,0.00,,,0.00,,2013-02-11 20:41:00,
2013-02-11 12:52:00,60.0,32.0,30.14,SSE,152,2.0,4.0,35,0.00,,,0.00,,2013-02-11 20:52:00,
2013-02-11 13:01:00,59.0,31.0,30.15,ENE,61,3.0,6.0,34,0.00,,,0.00,,2013-02-11 21:01:00,
2013-02-11 13:11:00,60.0,31.0,30.15,North,10,5.0,10.0,33,0.00,,,0.00,,2013-02-11 21:11:00,
2013-02-11 13:21:00,60.0,31.0,30.15,North,10,5.0,10.0,33,0.00,,,0.00,,2013-02-11 21:21:00,
2013-02-11 13:31:00,60.0,30.0,30.14,NNE,30,6.0,10.0,32,0.00,,,0.00,,2013-02-11 21:31:00,
2013-02-11 13:41:00,60.0,30.0,30.14,NNE,30,6.0,10.0,32,0.00,,,0.00,,2013-02-11 21:41:00,
2013-02-11 13:52:00,59.0,29.0,30.14,North,9,6.0,11.0,32,0.00,,,0.00,,2013-02-11 21:52:00,
2013-02-11 14:01:00,60.0,29.0,30.14,NE,48,6.0,9.0,31,0.00,,,0.00,,2013-02-11 22:01:00,
2013-02-11 14:11:00,60.0,30.0,30.14,NE,44,6.0,11.0,32,0.00,,,0.00,,2013-02-11 22:11:00,
2013-02-11 14:21:00,60.0,30.0,30.14,NE,44,6.0,11.0,32,0.00,,,0.00,,2013-02-11 22:21:00,
2013-02-11 14:31:00,59.0,29.0,30.14,NE,56,5.0,11.0,32,0.00,,,0.00,,2013-02-11 22:31:00,
2013-02-11 14:41:00,59.0,29.0,30.14,NE,56,5.0,11.0,32,0.00,,,0.00,,2013-02-11 22:41:00,
2013-02-11 14:52:00,60.0,31.0,30.14,NE,53,3.0,8.0,33,0.00,,,0.00,,2013-02-11 22:52:00,
2013-02-11 15:01:00,61.0,31.0,30.14,NE,36,4.0,10.0,32,0.00,,,0.00,,2013-02-11 23:01:00,
2013-02-11 15:11:00,61.0,31.0,30.14,NE,36,4.0,10.0,32,0.00,,,0.00,,2013-02-11 23:11:00,
2013-02-11 15:21:00,61.0,31.0,30.14,ENE,64,3.0,7.0,32,0.00,,,0.00,,2013-02-11 23:21:00,
2013-02-11 15:31:00,61.0,32.0,30.13,ENE,64,5.0,9.0,33,0.00,,,0.00,,2013-02-11 23:31:00,
2013-02-11 15:41:00,61.0,32.0,30.13,ENE,64,5.0,9.0,33,0.00,,,0.00,,2013-02-11 23:41:00,
2013-02-11 15:52:00,60.0,31.0,30.13,ENE,65,4.0,9.0,33,0.00,,,0.00,,2013-02-11 23:52:00,
2013-02-11 16:01:00,60.0,32.0,30.13,NNE,24,5.0,8.0,34,0.00,,,0.00,,2013-02-12 00:01:00,
2013-02-11 16:11:00,60.0,32.0,30.13,NNE,24,5.0,8.0,34,0.00,,,0.00,,2013-02-12 00:11:00,
2013-02-11 16:21:00,60.0,32.0,30.13,NNE,29,5.0,10.0,34,0.00,,,0.00,,2013-02-12 00:21:00,
2013-02-11 16:31:00,60.0,32.0,30.13,NE,53,4.0,8.0,34,0.00,,,0.00,,2013-02-12 00:31:00,
2013-02-11 16:41:00,60.0,32.0,30.13,NE,53,4.0,8.0,34,0.00,,,0.00,,2013-02-12 00:41:00,
2013-02-11 16:52:00,60.0,32.0,30.13,NE,40,4.0,7.0,34,0.00,,,0.00,,2013-02-12 00:52:00,
2013-02-11 17:01:00,59.0,31.0,30.13,NE,55,3.0,9.0,34,0.00,,,0.00,,2013-02-12 01:01:00,
2013-02-11 17:11:00,59.0,31.0,30.13,NE,55,3.0,9.0,34,0.00,,,0.00,,2013-02-12 01:11:00,
2013-02-11 17:21:00,59.0,31.0,30.13,ENE,72,3.0,7.0,35,0.00,,,0.00,,2013-02-12 01:21:00,
2013-02-11 17:31:00,58.0,31.0,30.14,East,88,1.0,7.0,36,0.00,,,0.00,,2013-02-12 01:31:00,
2013-02-11 17:41:00,58.0,31.0,30.14,East,88,1.0,7.0,36,0.00,,,0.00,,2013-02-12 01:41:00,
2013-02-11 17:52:00,57.0,31.0,30.14,East,96,1.0,3.0,37,0.00,,,0.00,,2013-02-12 01:52:00,
2013-02-11 18:01:00,56.0,31.0,30.15,East,96,0.0,2.0,38,0.00,,,0.00,,2013-02-12 02:01:00,
2013-02-11 18:11:00,55.0,31.0,30.15,East,96,0.0,2.0,39,0.00,,,0.00,,2013-02-12 02:11:00,
2013-02-11 18:21:00,55.0,31.0,30.15,East,96,0.0,2.0,39,0.00,,,0.00,,2013-02-12 02:21:00,
2013-02-11 18:31:00,54.0,31.0,30.15,East,96,0.0,2.0,42,0.00,,,0.00,,2013-02-12 02:31:00,
2013-02-11 18:41:00,54.0,31.0,30.15,East,96,0.0,2.0,42,0.00,,,0.00,,2013-02-12 02:41:00,
2013-02-11 18:52:00,53.0,31.0,30.15,East,96,0.0,1.0,43,0.00,,,0.00,,2013-02-12 02:52:00,
2013-02-11 19:01:00,52.0,31.0,30.16,East,96,1.0,2.0,45,0.00,,,0.00,,2013-02-12 03:01:00,
2013-02-11 19:11:00,51.0,31.0,30.17,East,96,1.0,2.0,46,0.00,,,0.00,,2013-02-12 03:11:00,
2013-02-11 19:21:00,51.0,31.0,30.17,East,96,1.0,2.0,46,0.00,,,0.00,,2013-02-12 03:21:00,
2013-02-11 19:31:00,50.0,32.0,30.17,East,96,0.0,2.0,49,0.00,,,0.00,,2013-02-12 03:31:00,
2013-02-11 19:41:00,49.0,32.0,30.17,East,96,0.0,1.0,51,0.00,,,0.00,,2013-02-12 03:41:00,
2013-02-11 19:51:00,49.0,32.0,30.17,East,96,0.0,1.0,51,0.00,,,0.00,,2013-02-12 03:51:00,
2013-02-11 20:01:00,48.0,31.0,30.17,East,96,0.0,1.0,51,0.00,,,0.00,,2013-02-12 04:01:00,
2013-02-11 20:11:00,48.0,31.0,30.17,East,96,0.0,1.0,51,0.00,,,0.00,,2013-02-12 04:11:00,
2013-02-11 20:21:00,47.0,30.0,30.18,East,95,1.0,2.0,52,0.00,,,0.00,,2013-02-12 04:21:00,
2013-02-11 20:31:00,46.0,30.0,30.18,East,96,0.0,2.0,53,0.00,,,0.00,,2013-02-12 04:31:00,
2013-02-11 20:41:00,46.0,30.0,30.18,East,96,0.0,2.0,53,0.00,,,0.00,,2013-02-12 04:41:00,
2013-02-11 20:52:00,45.0,29.0,30.19,East,96,1.0,2.0,54,0.00,,,0.00,,2013-02-12 04:52:00,
2013-02-11 21:01:00,45.0,30.0,30.19,East,95,1.0,2.0,55,0.00,,,0.00,,2013-02-12 05:01:00,
2013-02-11 21:11:00,45.0,30.0,30.19,East,96,1.0,3.0,56,0.00,,,0.00,,2013-02-12 05:11:00,
2013-02-11 21:21:00,45.0,30.0,30.19,East,96,1.0,3.0,56,0.00,,,0.00,,2013-02-12 05:21:00,
2013-02-11 21:31:00,44.0,29.0,30.19,East,96,0.0,2.0,56,0.00,,,0.00,,2013-02-12 05:31:00,
2013-02-11 21:41:00,44.0,29.0,30.19,East,96,0.0,2.0,56,0.00,,,0.00,,2013-02-12 05:41:00,
2013-02-11 21:52:00,44.0,29.0,30.19,East,97,0.0,1.0,56,0.00,,,0.00,,2013-02-12 05:52:00,
2013-02-11 22:01:00,43.0,29.0,30.20,East,97,0.0,1.0,57,0.00,,,0.00,,2013-02-12 06:01:00,
2013-02-11 22:11:00,43.0,30.0,30.20,East,96,0.0,0.0,59,0.00,,,0.00,,2013-02-12 06:11:00,
2013-02-11 22:21:00,43.0,30.0,30.20,East,96,0.0,0.0,59,0.00,,,0.00,,2013-02-12 06:21:00,
2013-02-11 22:31:00,42.0,29.0,30.20,East,97,0.0,1.0,60,0.00,,,0.00,,2013-02-12 06:31:00,
2013-02-11 22:42:00,41.0,29.0,30.20,East,96,0.0,1.0,63,0.00,,,0.00,,2013-02-12 06:42:00,
2013-02-11 22:52:00,41.0,29.0,30.20,East,96,0.0,1.0,63,0.00,,,0.00,,2013-02-12 06:52:00,
2013-02-11 23:01:00,41.0,30.0,30.20,East,96,0.0,1.0,65,0.00,,,0.00,,2013-02-12 07:01:00,
2013-02-11 23:11:00,41.0,30.0,30.20,East,96,0.0,1.0,65,0.00,,,0.00,,2013-02-12 07:11:00,
2013-02-11 23:21:00,40.0,29.0,30.20,East,97,0.0,0.0,65,0.00,,,0.00,,2013-02-12 07:21:00,
2013-02-11 23:31:00,39.0,29.0,30.21,East,97,0.0,0.0,67,0.00,,,0.00,,2013-02-12 07:31:00,
2013-02-11 23:41:00,39.0,29.0,30.21,East,97,0.0,0.0,67,0.00,,,0.00,,2013-02-12 07:41:00,
2013-02-11 23:52:00,39.0,30.0,30.21,East,96,0.0,1.0,69,0.00,,,0.00,,2013-02-12 07:52:00,